Time;durP1;ratioP1;P1;durP2;ratioP2;P2;SDS_P1;SDS_P2;PMS_P1;PMS_P2;Temp;Humidity;BMP_temperature;BMP_pressure;BME280_temperature;BME280_humidity;BME280_pressure;Samples;Min_cycle;Max_cycle;Signal;HPM_P1;HPM_P2
2021/04/22 00:00:51;;;;;;;18.80;10.20;;;9.90;93.80;;;;;;5028216;28;20029;-70
2021/04/22 00:03:17;;;;;;;15.43;8.98;;;9.90;94.00;;;;;;5019351;28;20021;-70
2021/04/22 00:05:43;;;;;;;13.77;9.40;;;9.90;94.00;;;;;;5019059;28;20057;-70
2021/04/22 00:08:13;;;;;;;16.08;8.38;;;9.80;93.90;;;;;;5021977;28;20037;-70
2021/04/22 00:10:48;;;;;;;16.23;10.88;;;9.90;93.80;;;;;;5019252;28;20110;-70
2021/04/22 00:13:16;;;;;;;14.93;8.80;;;9.90;93.90;;;;;;5019824;28;20029;-70
2021/04/22 00:15:43;;;;;;;15.43;9.85;;;10.00;93.70;;;;;;5025748;28;20426;-70
2021/04/22 00:18:09;;;;;;;13.25;9.18;;;9.90;94.00;;;;;;5027741;28;20040;-71
2021/04/22 00:20:36;;;;;;;16.38;9.63;;;9.90;94.10;;;;;;5020595;28;20034;-71
2021/04/22 00:23:13;;;;;;;13.95;9.05;;;9.70;94.30;;;;;;5017867;28;20021;-71
2021/04/22 00:25:41;;;;;;;15.80;8.98;;;9.70;94.40;;;;;;5018902;28;20509;-70
2021/04/22 00:28:08;;;;;;;11.98;7.95;;;9.60;94.60;;;;;;5019899;28;20494;-70
2021/04/22 00:30:34;;;;;;;13.18;7.90;;;9.60;94.70;;;;;;5019376;28;20033;-70
2021/04/22 00:33:04;;;;;;;15.02;9.40;;;9.50;94.80;;;;;;5019214;28;20781;-71
2021/04/22 00:35:30;;;;;;;11.63;7.68;;;9.50;94.90;;;;;;5017828;28;20025;-70
2021/04/22 00:37:56;;;;;;;12.98;8.15;;;9.50;95.10;;;;;;5018114;28;20519;-71
2021/04/22 00:40:25;;;;;;;15.05;8.80;;;9.40;95.10;;;;;;5022559;28;20076;-70
2021/04/22 00:42:51;;;;;;;13.77;9.23;;;9.40;95.10;;;;;;5018550;28;20078;-70
2021/04/22 00:45:18;;;;;;;15.40;9.68;;;9.50;95.10;;;;;;5017018;28;20029;-70
2021/04/22 00:47:44;;;;;;;13.23;8.68;;;9.50;95.30;;;;;;5019256;28;20052;-70
2021/04/22 00:50:17;;;;;;;17.05;10.02;;;9.50;95.20;;;;;;5023903;28;20026;-70
2021/04/22 00:52:43;;;;;;;14.25;9.35;;;9.50;95.30;;;;;;5025189;28;20026;-70
2021/04/22 00:55:09;;;;;;;14.95;9.15;;;9.50;95.10;;;;;;5020150;28;20047;-71
2021/04/22 00:57:35;;;;;;;14.00;9.52;;;9.50;95.30;;;;;;5017905;28;20038;-70
2021/04/22 01:00:01;;;;;;;15.00;8.85;;;9.50;95.30;;;;;;5021995;28;20037;-70
2021/04/22 01:02:27;;;;;;;16.20;9.20;;;9.50;95.50;;;;;;5019536;28;20061;-70
2021/04/22 01:04:52;;;;;;;14.50;8.23;;;9.50;95.60;;;;;;5017973;28;20434;-70
2021/04/22 01:07:18;;;;;;;15.13;9.43;;;9.30;95.90;;;;;;5022523;28;20033;-70
2021/04/22 01:09:44;;;;;;;17.60;10.40;;;9.40;96.00;;;;;;5016780;28;20050;-70
2021/04/22 01:12:13;;;;;;;14.77;9.43;;;9.20;96.30;;;;;;5031969;28;20044;-70
2021/04/22 01:14:40;;;;;;;14.00;8.77;;;9.10;96.30;;;;;;5022913;28;20041;-70
2021/04/22 01:17:07;;;;;;;14.45;9.50;;;9.00;96.50;;;;;;5021375;28;20045;-70
2021/04/22 01:19:33;;;;;;;13.73;9.70;;;9.00;96.60;;;;;;5036510;28;20052;-70
2021/04/22 01:21:59;;;;;;;15.80;9.60;;;9.00;96.70;;;;;;5027748;28;20045;-71
2021/04/22 01:24:25;;;;;;;16.50;9.18;;;8.90;96.70;;;;;;5021109;28;20037;-70
2021/04/22 01:26:50;;;;;;;16.23;9.88;;;8.80;96.90;;;;;;5023643;28;20025;-70
2021/04/22 01:29:16;;;;;;;14.90;9.88;;;8.80;97.10;;;;;;5021517;28;20574;-70
2021/04/22 01:31:42;;;;;;;13.10;8.90;;;8.70;97.20;;;;;;5026213;28;20391;-70
2021/04/22 01:34:10;;;;;;;16.65;9.35;;;8.70;97.30;;;;;;5021808;28;20032;-70
2021/04/22 01:36:44;;;;;;;16.23;10.10;;;8.80;97.30;;;;;;5033923;28;20038;-70
2021/04/22 01:39:12;;;;;;;15.88;9.65;;;8.80;97.40;;;;;;5052496;28;20056;-70
2021/04/22 01:41:38;;;;;;;14.20;9.90;;;8.80;97.40;;;;;;5050295;28;20040;-70
2021/04/22 01:44:04;;;;;;;16.17;10.73;;;8.80;97.40;;;;;;5042304;28;20041;-70
2021/04/22 01:46:30;;;;;;;18.30;11.00;;;8.70;97.60;;;;;;5036931;28;20021;-70
2021/04/22 01:48:56;;;;;;;15.82;10.15;;;8.70;97.70;;;;;;5036859;28;20036;-70
2021/04/22 01:51:22;;;;;;;16.10;9.68;;;8.80;97.60;;;;;;5021471;28;20112;-70
2021/04/22 01:53:49;;;;;;;16.08;9.80;;;8.80;97.70;;;;;;5026943;28;20068;-70
2021/04/22 01:56:16;;;;;;;14.48;9.80;;;8.70;97.80;;;;;;5024174;28;20095;-70
2021/04/22 01:58:42;;;;;;;13.68;9.52;;;8.60;98.10;;;;;;5020695;28;20453;-70
2021/04/22 02:01:09;;;;;;;16.75;10.10;;;8.60;98.30;;;;;;5023195;28;20025;-70
2021/04/22 02:03:37;;;;;;;16.35;9.90;;;8.50;98.40;;;;;;5024931;28;20101;-69
2021/04/22 02:06:05;;;;;;;13.52;8.73;;;8.50;98.60;;;;;;5021668;28;20038;-70
2021/04/22 02:08:32;;;;;;;16.13;9.38;;;8.50;98.70;;;;;;5022226;28;20017;-70
2021/04/22 02:10:58;;;;;;;16.48;9.57;;;8.50;98.90;;;;;;5027288;28;20163;-70
2021/04/22 02:13:25;;;;;;;13.98;8.90;;;8.60;99.00;;;;;;5018811;28;21403;-70
2021/04/22 02:15:52;;;;;;;13.52;8.57;;;8.60;99.10;;;;;;5023317;28;20033;-70
2021/04/22 02:18:18;;;;;;;16.52;9.18;;;8.80;99.20;;;;;;5020251;28;20032;-71
2021/04/22 02:20:44;;;;;;;14.77;9.40;;;8.90;99.40;;;;;;5019401;28;20033;-70
2021/04/22 02:23:13;;;;;;;14.70;9.18;;;9.00;99.20;;;;;;5017736;28;20087;-70
2021/04/22 02:25:40;;;;;;;17.13;9.35;;;9.10;99.00;;;;;;5027136;28;20022;-70
2021/04/22 02:28:06;;;;;;;15.98;10.13;;;9.30;98.90;;;;;;5023710;28;20033;-70
2021/04/22 02:30:34;;;;;;;18.02;9.98;;;9.10;98.70;;;;;;5029866;28;20053;-70
2021/04/22 02:33:02;;;;;;;13.15;8.90;;;8.90;99.10;;;;;;5041983;28;20025;-70
2021/04/22 02:35:30;;;;;;;13.48;9.05;;;8.60;99.90;;;;;;5034484;28;20041;-70
2021/04/22 02:37:56;;;;;;;15.85;8.82;;;9.00;99.70;;;;;;5040044;28;20025;-70
2021/04/22 02:40:24;;;;;;;14.13;9.10;;;9.20;99.40;;;;;;5046272;28;20057;-70
2021/04/22 02:42:51;;;;;;;16.17;9.73;;;9.40;99.10;;;;;;5024909;28;20152;-70
2021/04/22 02:45:21;;;;;;;12.30;8.55;;;9.50;98.80;;;;;;5030605;28;20029;-70
2021/04/22 02:47:47;;;;;;;14.93;9.38;;;8.90;99.30;;;;;;5026251;28;20025;-70
2021/04/22 02:50:17;;;;;;;16.40;8.98;;;8.90;99.60;;;;;;5019099;28;20681;-70
2021/04/22 02:52:43;;;;;;;13.85;8.75;;;8.90;99.30;;;;;;5020968;28;20029;-70
2021/04/22 02:55:09;;;;;;;26.67;10.95;;;8.60;99.80;;;;;;5019536;28;21822;-70
2021/04/22 02:57:35;;;;;;;15.63;9.50;;;8.40;99.90;;;;;;5025536;28;20044;-70
2021/04/22 03:00:03;;;;;;;14.30;9.15;;;8.50;99.90;;;;;;5024694;28;20032;-71
2021/04/22 03:02:28;;;;;;;15.15;9.18;;;8.60;99.90;;;;;;5018395;28;20032;-71
2021/04/22 03:04:54;;;;;;;15.32;9.95;;;8.80;99.80;;;;;;5011079;28;20037;-71
2021/04/22 03:07:20;;;;;;;16.80;10.05;;;8.80;99.60;;;;;;5024004;28;20455;-70
2021/04/22 03:09:45;;;;;;;13.43;9.55;;;8.80;99.90;;;;;;5015221;28;20187;-71
2021/04/22 03:12:11;;;;;;;14.10;9.35;;;9.00;99.50;;;;;;5015291;28;20036;-70
2021/04/22 03:14:37;;;;;;;15.95;9.85;;;9.00;99.30;;;;;;5012333;28;20056;-70
2021/04/22 03:17:03;;;;;;;15.40;9.38;;;8.90;99.50;;;;;;5011776;28;20416;-70
2021/04/22 03:19:28;;;;;;;13.50;8.73;;;8.90;99.90;;;;;;5012381;28;20083;-70
2021/04/22 03:21:54;;;;;;;15.02;10.15;;;9.10;99.60;;;;;;5011958;28;20033;-70
2021/04/22 03:24:20;;;;;;;16.05;8.98;;;8.80;99.80;;;;;;5018265;28;20029;-70
2021/04/22 03:26:45;;;;;;;14.63;9.65;;;8.90;99.70;;;;;;5012921;28;20033;-70
2021/04/22 03:29:11;;;;;;;13.98;8.65;;;8.80;99.60;;;;;;5010085;28;20043;-71
2021/04/22 03:31:37;;;;;;;14.93;9.50;;;8.90;99.50;;;;;;5010697;28;20033;-70
2021/04/22 03:34:03;;;;;;;17.52;10.88;;;8.80;99.60;;;;;;5011911;28;20886;-70
2021/04/22 03:36:29;;;;;;;14.13;9.05;;;8.60;99.90;;;;;;5016756;28;20044;-70
2021/04/22 03:38:55;;;;;;;14.02;9.18;;;8.50;99.90;;;;;;5014228;28;20657;-70
2021/04/22 03:41:22;;;;;;;15.05;10.18;;;8.30;99.90;;;;;;5015313;28;20108;-71
2021/04/22 03:43:48;;;;;;;15.23;9.57;;;8.00;99.90;;;;;;5013688;28;20033;-70
2021/04/22 03:46:13;;;;;;;15.50;10.00;;;8.00;99.90;;;;;;5010604;28;20037;-70
2021/04/22 03:48:39;;;;;;;15.90;10.50;;;8.20;99.90;;;;;;5023941;28;20535;-70
2021/04/22 03:51:05;;;;;;;15.13;9.90;;;8.10;99.90;;;;;;5023127;28;21067;-70
2021/04/22 03:53:30;;;;;;;14.07;9.80;;;8.20;99.90;;;;;;5012436;28;20048;-70
2021/04/22 03:55:56;;;;;;;15.63;10.48;;;8.10;99.90;;;;;;5012263;28;20068;-70
2021/04/22 03:58:22;;;;;;;16.50;11.65;;;8.20;99.90;;;;;;5014372;28;20407;-70
2021/04/22 04:00:47;;;;;;;16.98;11.80;;;8.30;99.90;;;;;;5016954;28;20060;-70
2021/04/22 04:03:13;;;;;;;17.35;10.93;;;8.40;99.90;;;;;;5011667;28;20022;-70
2021/04/22 04:05:39;;;;;;;16.02;10.18;;;8.40;99.90;;;;;;5012270;28;20046;-71
2021/04/22 04:08:05;;;;;;;17.88;10.35;;;8.50;99.90;;;;;;5011957;28;20021;-70
2021/04/22 04:10:31;;;;;;;16.98;9.00;;;8.30;99.90;;;;;;5012039;28;20042;-70
2021/04/22 04:12:57;;;;;;;16.83;10.38;;;8.20;99.90;;;;;;5020624;28;20029;-71
2021/04/22 04:15:24;;;;;;;14.75;8.80;;;8.30;99.90;;;;;;5012791;28;20033;-70
2021/04/22 04:17:50;;;;;;;14.00;9.63;;;8.30;99.90;;;;;;5012213;28;20131;-70
2021/04/22 04:20:16;;;;;;;15.23;10.00;;;8.20;99.90;;;;;;5010937;28;20029;-70
2021/04/22 04:22:42;;;;;;;14.63;9.88;;;8.30;99.90;;;;;;5021305;28;20492;-70
2021/04/22 04:25:10;;;;;;;17.77;11.15;;;8.20;99.90;;;;;;5013161;28;20041;-71
2021/04/22 04:27:37;;;;;;;14.85;9.40;;;8.20;99.90;;;;;;5013413;28;20031;-70
2021/04/22 04:30:07;;;;;;;14.02;9.48;;;8.10;99.90;;;;;;5011654;28;20373;-70
2021/04/22 04:32:33;;;;;;;12.70;10.05;;;8.10;99.90;;;;;;5014556;28;20026;-71
2021/04/22 04:34:58;;;;;;;16.02;9.75;;;8.00;99.90;;;;;;5035652;28;20040;-70
2021/04/22 04:37:24;;;;;;;17.17;10.10;;;8.00;99.90;;;;;;5024739;28;20480;-71
2021/04/22 04:39:50;;;;;;;14.98;9.55;;;8.00;99.90;;;;;;5009629;28;20033;-70
2021/04/22 04:42:17;;;;;;;18.75;11.55;;;8.00;99.90;;;;;;5010336;28;20036;-71
2021/04/22 04:44:42;;;;;;;19.40;11.18;;;8.00;99.90;;;;;;5019066;28;20032;-70
2021/04/22 04:47:08;;;;;;;16.65;10.70;;;8.00;99.90;;;;;;5015367;28;21710;-71
2021/04/22 04:49:34;;;;;;;14.32;10.25;;;7.90;99.90;;;;;;5017188;28;20479;-71
2021/04/22 04:52:00;;;;;;;17.10;10.73;;;7.90;99.90;;;;;;5020650;28;20645;-71
2021/04/22 04:54:25;;;;;;;16.02;10.23;;;7.80;99.90;;;;;;5019800;28;20029;-70
2021/04/22 04:56:51;;;;;;;13.73;9.88;;;7.80;99.90;;;;;;5016857;28;20041;-70
2021/04/22 04:59:17;;;;;;;17.38;11.00;;;7.90;99.90;;;;;;5020281;28;20410;-70
2021/04/22 05:01:43;;;;;;;17.63;10.32;;;7.90;99.90;;;;;;5020427;28;20037;-70
2021/04/22 05:04:08;;;;;;;17.58;10.15;;;7.70;99.90;;;;;;5020520;28;20067;-70
2021/04/22 05:06:34;;;;;;;15.98;10.15;;;7.80;99.90;;;;;;5015329;28;20120;-71
2021/04/22 05:09:00;;;;;;;15.88;10.95;;;7.90;99.90;;;;;;5033890;28;20052;-70
2021/04/22 05:11:26;;;;;;;16.92;10.68;;;8.00;99.90;;;;;;5027249;28;20033;-71
2021/04/22 05:13:52;;;;;;;18.83;11.70;;;8.10;99.90;;;;;;5019332;28;20345;-70
2021/04/22 05:16:18;;;;;;;15.30;10.48;;;8.30;99.90;;;;;;5020158;28;20037;-71
2021/04/22 05:18:44;;;;;;;19.52;12.00;;;8.10;99.90;;;;;;5015393;28;20021;-70
2021/04/22 05:21:10;;;;;;;15.98;11.20;;;8.10;99.90;;;;;;5013943;28;20040;-70
2021/04/22 05:23:36;;;;;;;18.98;11.50;;;8.30;99.90;;;;;;5015093;28;20033;-71
2021/04/22 05:26:01;;;;;;;17.73;11.00;;;8.30;99.90;;;;;;5022663;28;20044;-71
2021/04/22 05:28:27;;;;;;;18.50;11.23;;;8.30;99.90;;;;;;5017771;28;20070;-71
2021/04/22 05:30:53;;;;;;;17.75;11.07;;;8.30;99.90;;;;;;5017567;28;20056;-71
2021/04/22 05:33:18;;;;;;;16.02;10.68;;;8.50;99.90;;;;;;5014232;28;21218;-71
2021/04/22 05:35:45;;;;;;;15.52;9.30;;;8.60;99.90;;;;;;5022182;28;20033;-71
2021/04/22 05:38:11;;;;;;;12.88;9.25;;;8.50;99.90;;;;;;5016318;28;20037;-71
2021/04/22 05:40:37;;;;;;;16.70;10.20;;;8.60;99.90;;;;;;5014152;28;20044;-70
2021/04/22 05:43:07;;;;;;;15.75;10.15;;;8.60;99.90;;;;;;5027900;28;20025;-70
2021/04/22 05:45:33;;;;;;;14.18;10.32;;;8.60;99.90;;;;;;5041137;28;20025;-70
2021/04/22 05:47:58;;;;;;;14.85;9.45;;;8.70;99.90;;;;;;5024498;28;20086;-71
2021/04/22 05:50:24;;;;;;;17.30;10.02;;;8.80;99.90;;;;;;5014280;28;20028;-70
2021/04/22 05:52:50;;;;;;;15.65;9.75;;;8.80;99.90;;;;;;5012095;28;20574;-70
2021/04/22 05:55:16;;;;;;;14.77;8.80;;;8.70;99.90;;;;;;5014560;28;20036;-70
2021/04/22 05:57:42;;;;;;;16.48;10.55;;;8.80;99.90;;;;;;5015038;28;20079;-70
2021/04/22 06:00:13;;;;;;;14.80;10.00;;;8.90;99.90;;;;;;5017519;28;20033;-70
2021/04/22 06:02:39;;;;;;;16.25;9.82;;;8.90;99.90;;;;;;5012864;28;20083;-70
2021/04/22 06:05:05;;;;;;;13.02;8.75;;;8.90;99.90;;;;;;5013889;28;20438;-70
2021/04/22 06:07:31;;;;;;;12.98;9.50;;;8.80;99.90;;;;;;5013919;28;20040;-71
2021/04/22 06:09:57;;;;;;;14.52;9.50;;;8.80;99.90;;;;;;5017518;28;20049;-70
2021/04/22 06:12:23;;;;;;;15.52;9.90;;;8.90;99.90;;;;;;5014152;28;20113;-70
2021/04/22 06:14:48;;;;;;;15.23;8.98;;;8.90;99.90;;;;;;5013927;28;20699;-70
2021/04/22 06:17:15;;;;;;;15.52;9.73;;;9.00;99.90;;;;;;5021143;28;20045;-70
2021/04/22 06:19:41;;;;;;;15.35;9.35;;;9.10;99.90;;;;;;5029283;28;20029;-69
2021/04/22 06:22:07;;;;;;;12.00;8.25;;;9.20;99.90;;;;;;5026685;28;20067;-70
2021/04/22 06:24:32;;;;;;;14.05;9.20;;;9.40;99.90;;;;;;5029319;28;20037;-69
2021/04/22 06:26:58;;;;;;;13.20;9.20;;;9.50;99.90;;;;;;5032207;28;20677;-69
2021/04/22 06:29:24;;;;;;;16.35;9.77;;;9.60;99.90;;;;;;5030259;28;20033;-69
2021/04/22 06:31:50;;;;;;;17.13;9.43;;;10.00;99.90;;;;;;5045485;28;20025;-69
2021/04/22 06:34:16;;;;;;;13.70;9.10;;;10.10;99.90;;;;;;5043129;28;20025;-69
2021/04/22 06:36:43;;;;;;;12.85;8.57;;;10.30;99.90;;;;;;5036755;28;20037;-69
2021/04/22 06:39:09;;;;;;;13.05;8.82;;;10.50;99.60;;;;;;5036793;28;20571;-69
2021/04/22 06:41:35;;;;;;;13.43;8.25;;;10.60;99.10;;;;;;5040815;28;20112;-69
2021/04/22 06:44:01;;;;;;;10.90;7.90;;;10.70;98.90;;;;;;5028803;28;20111;-69
2021/04/22 06:46:28;;;;;;;14.57;8.60;;;10.90;98.40;;;;;;5041799;28;20032;-69
2021/04/22 06:48:54;;;;;;;11.35;7.97;;;11.10;98.20;;;;;;5028635;28;20041;-69
2021/04/22 06:51:21;;;;;;;11.90;8.35;;;11.20;97.30;;;;;;5040681;28;20499;-69
2021/04/22 06:53:46;;;;;;;12.43;8.60;;;11.70;97.40;;;;;;5030528;28;20033;-70
2021/04/22 06:56:12;;;;;;;15.20;9.25;;;12.30;96.80;;;;;;5025503;28;20041;-70
2021/04/22 06:58:38;;;;;;;15.98;8.98;;;12.80;95.20;;;;;;5034823;28;20021;-70
2021/04/22 07:01:03;;;;;;;13.30;9.00;;;14.40;94.40;;;;;;5030539;28;20104;-71
2021/04/22 07:03:29;;;;;;;13.63;8.77;;;15.00;91.90;;;;;;5044504;28;20029;-70
2021/04/22 07:05:55;;;;;;;12.10;8.50;;;15.30;91.20;;;;;;5043665;28;20079;-70
2021/04/22 07:08:21;;;;;;;12.48;8.65;;;16.00;90.10;;;;;;5040473;28;20033;-70
2021/04/22 07:10:46;;;;;;;12.32;7.85;;;16.60;88.80;;;;;;5039298;28;20029;-70
2021/04/22 07:13:12;;;;;;;11.27;8.30;;;16.90;86.80;;;;;;5044338;28;20029;-70
2021/04/22 07:15:38;;;;;;;12.68;8.13;;;17.20;84.70;;;;;;5036501;28;20045;-70
2021/04/22 07:18:09;;;;;;;14.05;9.63;;;17.30;84.50;;;;;;5025258;28;20037;-70
2021/04/22 07:20:35;;;;;;;11.73;8.65;;;17.60;82.70;;;;;;5034637;28;20029;-70
2021/04/22 07:23:01;;;;;;;11.88;8.65;;;17.40;83.60;;;;;;5025602;28;20163;-70
2021/04/22 07:25:33;;;;;;;11.60;8.70;;;18.10;81.90;;;;;;5038295;28;20578;-70
2021/04/22 07:28:07;;;;;;;11.35;8.43;;;17.80;81.30;;;;;;5024458;28;20299;-70
2021/04/22 07:30:33;;;;;;;13.20;7.63;;;17.80;81.00;;;;;;5029207;28;20129;-70
2021/04/22 07:32:59;;;;;;;13.48;8.15;;;18.00;80.00;;;;;;5034845;28;20027;-70
2021/04/22 07:35:24;;;;;;;13.02;8.80;;;17.70;80.40;;;;;;5038320;28;20021;-70
2021/04/22 07:37:50;;;;;;;11.75;8.52;;;16.80;81.60;;;;;;5041619;28;20399;-70
2021/04/22 07:40:24;;;;;;;12.95;8.40;;;14.80;86.80;;;;;;5030560;28;20037;-70
2021/04/22 07:42:50;;;;;;;13.93;9.35;;;13.30;90.20;;;;;;5024720;28;20037;-70
2021/04/22 07:45:20;;;;;;;13.23;9.48;;;12.80;91.30;;;;;;5025259;28;20102;-70
2021/04/22 07:47:46;;;;;;;11.98;8.32;;;12.50;92.30;;;;;;5030277;28;20025;-70
2021/04/22 07:50:14;;;;;;;11.55;7.90;;;12.40;91.90;;;;;;5033402;28;20040;-70
2021/04/22 07:52:43;;;;;;;12.23;8.82;;;12.20;92.60;;;;;;5021417;28;20737;-70
2021/04/22 07:55:11;;;;;;;11.98;7.97;;;12.30;92.90;;;;;;5011714;28;20091;-70
2021/04/22 07:57:38;;;;;;;11.15;8.40;;;12.10;93.30;;;;;;5014273;28;20041;-70
2021/04/22 08:00:09;;;;;;;13.70;7.88;;;11.90;93.70;;;;;;5012289;28;20492;-70
2021/04/22 08:02:35;;;;;;;12.95;8.93;;;12.20;93.90;;;;;;5011651;28;20120;-70
2021/04/22 08:05:01;;;;;;;13.57;7.85;;;12.30;94.00;;;;;;5013804;28;20124;-70
2021/04/22 08:07:27;;;;;;;10.82;7.90;;;12.30;93.30;;;;;;5013011;28;20374;-70
2021/04/22 08:09:53;;;;;;;13.63;8.43;;;12.40;92.90;;;;;;5011192;28;20697;-71
2021/04/22 08:12:18;;;;;;;13.85;8.85;;;12.30;93.10;;;;;;5011620;28;20029;-70
2021/04/22 08:14:44;;;;;;;13.05;8.23;;;12.40;93.10;;;;;;5018650;28;20078;-70
2021/04/22 08:17:11;;;;;;;14.93;8.68;;;12.20;93.70;;;;;;5013546;28;20535;-70
2021/04/22 08:19:37;;;;;;;13.07;8.73;;;12.40;93.80;;;;;;5011784;28;20154;-71
2021/04/22 08:22:03;;;;;;;13.80;8.45;;;12.30;93.70;;;;;;5010284;28;20480;-70
2021/04/22 08:24:28;;;;;;;10.45;7.53;;;12.20;93.70;;;;;;5011722;28;20368;-71
2021/04/22 08:26:54;;;;;;;11.30;8.63;;;12.60;93.90;;;;;;5014227;28;20036;-70
2021/04/22 08:29:20;;;;;;;12.10;8.38;;;12.80;93.60;;;;;;5018443;28;20108;-70
2021/04/22 08:31:47;;;;;;;11.65;8.27;;;13.10;93.50;;;;;;5018182;28;20130;-70
2021/04/22 08:34:13;;;;;;;12.88;8.73;;;14.90;91.50;;;;;;5014431;28;20032;-71
2021/04/22 08:36:39;;;;;;;13.82;8.73;;;16.70;90.10;;;;;;5012385;28;20037;-70
2021/04/22 08:39:07;;;;;;;10.50;7.60;;;17.50;88.10;;;;;;5011185;28;20049;-71
2021/04/22 08:41:33;;;;;;;10.75;7.97;;;17.40;84.80;;;;;;5012462;28;20048;-71
2021/04/22 08:44:02;;;;;;;15.50;8.15;;;17.60;84.70;;;;;;5012675;28;20488;-70
2021/04/22 08:46:29;;;;;;;15.70;8.00;;;17.60;85.60;;;;;;5012400;28;20595;-70
2021/04/22 08:48:55;;;;;;;11.20;8.18;;;17.80;85.50;;;;;;5014812;28;20098;-71
2021/04/22 08:51:21;;;;;;;11.40;7.78;;;17.50;84.70;;;;;;5010293;28;20120;-70
2021/04/22 08:53:48;;;;;;;12.35;8.27;;;17.80;85.80;;;;;;5009069;28;20061;-72
2021/04/22 08:56:15;;;;;;;11.85;8.40;;;18.40;83.60;;;;;;5008425;28;21142;-71
2021/04/22 08:58:42;;;;;;;15.15;8.57;;;17.70;83.00;;;;;;5016038;28;20154;-70
2021/04/22 09:01:18;;;;;;;16.05;9.05;;;17.20;83.10;;;;;;5021035;28;20032;-70
2021/04/22 09:03:46;;;;;;;14.80;8.77;;;17.30;83.60;;;;;;5030841;28;20032;-70
2021/04/22 09:06:12;;;;;;;11.77;8.43;;;16.90;83.80;;;;;;5022415;28;20026;-70
2021/04/22 09:08:44;;;;;;;11.18;8.27;;;16.10;88.10;;;;;;5010055;28;20118;-71
2021/04/22 09:11:13;;;;;;;12.60;8.82;;;16.00;88.70;;;;;;5010244;28;20090;-71
2021/04/22 09:13:39;;;;;;;15.25;8.57;;;15.80;89.70;;;;;;5014085;28;20094;-70
2021/04/22 09:16:11;;;;;;;11.55;8.18;;;15.10;88.30;;;;;;5010452;28;20120;-70
2021/04/22 09:18:42;;;;;;;14.05;7.97;;;14.90;89.10;;;;;;5013769;28;20518;-70
2021/04/22 09:21:22;;;;;;;11.70;8.25;;;14.80;89.70;;;;;;5010301;28;20026;-71
2021/04/22 09:24:02;;;;;;;17.20;8.32;;;15.10;90.50;;;;;;5011305;28;20037;-70
2021/04/22 09:27:03;;;;;;;14.10;8.75;;;15.00;89.30;;;;;;5013092;28;20029;-70
2021/04/22 09:29:47;;;;;;;13.80;9.63;;;15.10;89.30;;;;;;5011162;28;20144;-70
2021/04/22 09:32:23;;;;;;;15.82;9.00;;;15.50;89.50;;;;;;5011964;28;20034;-71
2021/04/22 09:34:52;;;;;;;13.25;8.90;;;15.70;89.00;;;;;;5015798;28;20058;-70
2021/04/22 09:37:20;;;;;;;12.07;9.07;;;15.90;89.10;;;;;;5012815;28;20550;-70
2021/04/22 09:39:49;;;;;;;16.45;9.55;;;15.90;87.20;;;;;;5015216;28;20022;-69
2021/04/22 09:42:17;;;;;;;13.25;8.95;;;16.10;87.90;;;;;;5027491;28;20032;-70
2021/04/22 09:44:47;;;;;;;17.83;9.45;;;16.40;87.20;;;;;;5017997;28;20587;-71
2021/04/22 09:47:16;;;;;;;12.50;9.20;;;16.30;87.40;;;;;;5018663;28;20021;-71
2021/04/22 09:50:00;;;;;;;12.60;8.35;;;16.10;86.00;;;;;;5028548;28;20115;-70
2021/04/22 09:52:30;;;;;;;15.13;9.73;;;16.20;86.10;;;;;;5017878;28;21594;-71
2021/04/22 09:54:56;;;;;;;11.10;7.93;;;16.30;85.70;;;;;;5011428;28;20034;-71
2021/04/22 09:57:31;;;;;;;12.48;8.82;;;16.50;87.70;;;;;;5012068;28;20561;-70
2021/04/22 09:59:58;;;;;;;12.00;8.02;;;16.50;87.30;;;;;;5021099;28;20108;-71
2021/04/22 10:02:25;;;;;;;12.45;8.77;;;16.70;87.10;;;;;;5020105;28;20108;-70
2021/04/22 10:04:54;;;;;;;11.65;8.35;;;17.00;86.70;;;;;;5012037;28;20033;-70
2021/04/22 10:07:25;;;;;;;13.70;8.15;;;16.80;84.80;;;;;;5013196;28;20049;-70
2021/04/22 10:09:56;;;;;;;10.73;7.68;;;16.90;84.00;;;;;;5013655;28;20139;-70
2021/04/22 10:12:33;;;;;;;12.88;8.60;;;16.90;83.10;;;;;;5020007;28;20504;-70
2021/04/22 10:15:31;;;;;;;15.07;9.10;;;16.80;84.00;;;;;;5013995;28;20897;-70
2021/04/22 10:18:07;;;;;;;10.43;7.90;;;17.00;84.20;;;;;;5015803;28;20108;-71
2021/04/22 10:20:35;;;;;;;9.73;7.35;;;17.10;84.10;;;;;;5012894;28;20029;-70
2021/04/22 10:23:03;;;;;;;9.85;6.70;;;17.40;83.00;;;;;;5013635;28;20025;-70
2021/04/22 10:25:34;;;;;;;11.93;7.30;;;17.70;83.50;;;;;;5013164;28;20028;-70
2021/04/22 10:28:05;;;;;;;10.93;7.90;;;17.70;82.10;;;;;;5019042;28;20103;-70
2021/04/22 10:30:31;;;;;;;14.18;7.75;;;18.00;82.80;;;;;;5015099;28;20025;-71
2021/04/22 10:32:58;;;;;;;10.77;7.43;;;18.00;81.80;;;;;;5012631;28;20065;-70
2021/04/22 10:35:26;;;;;;;12.70;7.38;;;18.10;80.70;;;;;;5009634;28;20959;-71
2021/04/22 10:37:53;;;;;;;12.48;8.30;;;18.00;80.30;;;;;;5016872;28;20108;-71
2021/04/22 10:40:25;;;;;;;12.45;7.68;;;18.20;84.50;;;;;;5012826;28;20036;-70
2021/04/22 10:42:55;;;;;;;10.25;7.57;;;18.20;82.70;;;;;;5013175;28;20035;-71
2021/04/22 10:45:21;;;;;;;13.15;6.90;;;18.10;80.90;;;;;;5013312;28;22280;-70
2021/04/22 10:47:48;;;;;;;11.20;7.20;;;18.40;81.50;;;;;;5013935;28;20033;-71
2021/04/22 10:50:20;;;;;;;11.48;6.80;;;18.50;81.70;;;;;;5011237;28;20471;-71
2021/04/22 10:52:48;;;;;;;8.43;5.43;;;18.60;80.90;;;;;;5011877;28;20906;-71
2021/04/22 10:55:18;;;;;;;8.15;5.80;;;18.70;81.80;;;;;;5027998;28;20043;-70
2021/04/22 10:57:44;;;;;;;9.85;5.22;;;18.60;81.20;;;;;;5018474;28;20442;-69
2021/04/22 11:00:13;;;;;;;9.35;4.78;;;18.40;77.20;;;;;;5016324;28;20056;-70
2021/04/22 11:02:48;;;;;;;9.50;4.82;;;18.70;79.60;;;;;;5015440;28;20052;-70
2021/04/22 11:05:24;;;;;;;6.38;4.00;;;19.10;78.20;;;;;;5015270;28;20081;-70
2021/04/22 11:08:00;;;;;;;6.50;4.03;;;18.60;73.80;;;;;;5012556;28;20112;-71
2021/04/22 11:10:37;;;;;;;7.00;3.80;;;18.90;75.80;;;;;;5013926;28;21833;-72
2021/04/22 11:13:19;;;;;;;8.10;5.53;;;18.60;73.80;;;;;;5011692;28;20095;-70
2021/04/22 11:15:46;;;;;;;8.30;4.18;;;18.50;74.10;;;;;;5012041;28;21430;-72
2021/04/22 11:18:13;;;;;;;6.00;3.42;;;18.80;72.90;;;;;;5014408;28;20030;-71
2021/04/22 11:20:41;;;;;;;14.52;3.95;;;19.10;72.50;;;;;;5016384;28;20043;-72
2021/04/22 11:23:19;;;;;;;6.65;3.80;;;19.40;72.50;;;;;;5010891;28;20029;-72
2021/04/22 11:25:56;;;;;;;6.43;3.90;;;19.50;70.10;;;;;;5011553;28;20156;-72
2021/04/22 11:28:29;;;;;;;4.75;3.20;;;19.10;70.20;;;;;;5013470;28;20030;-71
2021/04/22 11:31:09;;;;;;;5.70;2.60;;;19.10;67.50;;;;;;5034358;28;20115;-71
2021/04/22 11:33:36;;;;;;;4.72;2.95;;;19.20;68.40;;;;;;5014255;28;20352;-71
2021/04/22 11:36:12;;;;;;;5.80;3.40;;;19.20;68.00;;;;;;5016895;28;20124;-71
2021/04/22 11:38:48;;;;;;;5.95;3.92;;;19.10;68.00;;;;;;5044045;28;20029;-71
2021/04/22 11:41:14;;;;;;;6.68;3.70;;;19.30;70.60;;;;;;5012159;28;20049;-71
2021/04/22 11:43:40;;;;;;;11.45;3.50;;;19.60;68.40;;;;;;5014012;28;20120;-72
2021/04/22 11:46:06;;;;;;;16.95;4.10;;;19.60;69.30;;;;;;5018885;28;20029;-72
2021/04/22 11:48:40;;;;;;;7.20;4.10;;;19.30;66.40;;;;;;5014035;28;20586;-70
2021/04/22 11:51:06;;;;;;;10.55;4.38;;;19.50;69.50;;;;;;5012529;28;20680;-72
2021/04/22 11:53:38;;;;;;;5.82;3.38;;;19.70;70.00;;;;;;5007700;28;20485;-73
2021/04/22 11:56:06;;;;;;;7.00;3.70;;;20.20;67.90;;;;;;5010384;28;20049;-72
2021/04/22 11:58:33;;;;;;;5.63;3.58;;;20.30;68.60;;;;;;5013029;28;20576;-71
2021/04/22 12:01:02;;;;;;;6.75;3.92;;;20.20;64.50;;;;;;5017122;28;20017;-72
2021/04/22 12:03:33;;;;;;;6.22;3.55;;;19.70;65.60;;;;;;5011000;28;20050;-72
2021/04/22 12:06:07;;;;;;;7.40;3.72;;;19.90;66.80;;;;;;5011383;28;20026;-72
2021/04/22 12:08:34;;;;;;;5.40;3.33;;;20.20;67.40;;;;;;5010735;28;20036;-72
2021/04/22 12:11:02;;;;;;;5.35;3.15;;;20.30;66.70;;;;;;5019492;28;20040;-72
2021/04/22 12:13:30;;;;;;;4.78;2.70;;;20.30;64.70;;;;;;5012190;28;20027;-74
2021/04/22 12:15:58;;;;;;;8.35;3.40;;;20.50;66.10;;;;;;5010403;28;20021;-74
2021/04/22 12:18:29;;;;;;;6.32;3.15;;;20.80;64.20;;;;;;5014448;28;20695;-73
2021/04/22 12:21:30;;;;;;;8.93;3.90;;;20.70;62.10;;;;;;5017807;28;20502;-71
2021/04/22 12:24:05;;;;;;;7.60;3.92;;;20.70;64.60;;;;;;5016183;28;20020;-71
2021/04/22 12:26:33;;;;;;;6.05;3.22;;;20.70;64.60;;;;;;5010289;28;20029;-71
2021/04/22 12:29:00;;;;;;;8.45;4.30;;;20.60;63.70;;;;;;5011765;28;20483;-71
2021/04/22 12:31:45;;;;;;;5.45;3.53;;;20.40;64.60;;;;;;5015677;28;20032;-71
2021/04/22 12:34:11;;;;;;;8.02;4.38;;;20.50;64.30;;;;;;5011906;28;20060;-72
2021/04/22 12:36:38;;;;;;;6.85;4.28;;;20.70;64.50;;;;;;5011535;28;20025;-71
2021/04/22 12:39:05;;;;;;;7.10;5.22;;;20.60;65.70;;;;;;5010731;28;20025;-71
2021/04/22 12:41:31;;;;;;;7.50;4.47;;;20.50;66.00;;;;;;5010654;28;20025;-71
2021/04/22 12:43:57;;;;;;;6.15;4.18;;;20.30;63.60;;;;;;5010913;28;20105;-72